AAL7542 SKSP-KDFW

Flight info

Callsign AAL7542
Flight time 3h 59m
Altitude 36000
Route PELRA4B PELRA UN420 ILUBA UL333 PISAD L333 HRV J58 AEX CQY3
Aircraft A319/M-SDE3FGHIRWY/LB1

Departure

Time 2026-04-18 22:32
Airport Gustavo Rojas Pinilla International Airport (SKSP)

Arrival

Time 2026-04-19 02:31
Airport Dallas Fort Worth International Airport (KDFW)
Time Latitude Longitude Altitude Speed Heading
2026-04-18 22:02 12.58691 -81.70231 16 ft 0 kts 150°
2026-04-18 22:23 12.58687 -81.70230 15 ft 4 kts 181°
2026-04-18 22:23 12.58706 -81.70234 15 ft 2 kts 113°
2026-04-18 22:24 12.58697 -81.70213 16 ft 1 kts 291°
2026-04-18 22:27 12.58696 -81.70211 15 ft 5 kts 287°
2026-04-18 22:27 12.58706 -81.70248 15 ft 15 kts 285°
2026-04-18 22:27 12.58711 -81.70363 15 ft 17 kts 279°
2026-04-18 22:28 12.58730 -81.70477 18 ft 16 kts 262°
2026-04-18 22:28 12.58674 -81.70574 21 ft 16 kts 243°
2026-04-18 22:28 12.58625 -81.70668 25 ft 14 kts 241°
2026-04-18 22:28 12.58575 -81.70754 28 ft 14 kts 239°
2026-04-18 22:29 12.58521 -81.70845 28 ft 16 kts 239°
2026-04-18 22:29 12.58466 -81.70943 30 ft 16 kts 240°
2026-04-18 22:29 12.58411 -81.71043 32 ft 17 kts 241°
2026-04-18 22:29 12.58352 -81.71154 31 ft 19 kts 242°
2026-04-18 22:30 12.58288 -81.71282 31 ft 21 kts 243°
2026-04-18 22:30 12.58203 -81.71409 29 ft 23 kts 236°
2026-04-18 22:30 12.58117 -81.71554 28 ft 25 kts 239°
2026-04-18 22:30 12.58028 -81.71703 30 ft 25 kts 239°
2026-04-18 22:31 12.57938 -81.71858 31 ft 25 kts 240°
2026-04-18 22:31 12.57846 -81.71979 33 ft 20 kts 212°
2026-04-18 22:31 12.57833 -81.72039 32 ft 8 kts
2026-04-18 22:31 12.57845 -81.72022 32 ft 0 kts 61°
2026-04-18 22:32 12.57892 -81.71938 32 ft 47 kts 60°
2026-04-18 22:32 12.58182 -81.71440 29 ft 113 kts 59°
2026-04-18 22:32 12.58664 -81.70586 103 ft 156 kts 61°
2026-04-18 22:32 12.59249 -81.69647 701 ft 157 kts 57°
2026-04-18 22:33 12.59867 -81.68720 1317 ft 158 kts 55°
2026-04-18 22:33 12.60534 -81.67810 1872 ft 167 kts 48°
2026-04-18 22:33 12.61447 -81.66979 2285 ft 185 kts 36°
2026-04-18 22:33 12.62639 -81.66303 2631 ft 209 kts 22°
2026-04-18 22:34 12.64131 -81.65944 3050 ft 234 kts
2026-04-18 22:34 12.65836 -81.66072 3504 ft 259 kts 348°
2026-04-18 22:34 12.67511 -81.66795 4401 ft 264 kts 326°
2026-04-18 22:34 12.68843 -81.68085 5361 ft 267 kts 307°
2026-04-18 22:35 12.69915 -81.69656 6280 ft 271 kts 306°
2026-04-18 22:35 12.71001 -81.71248 7118 ft 275 kts 306°
2026-04-18 22:35 12.72112 -81.72866 7951 ft 280 kts 306°
2026-04-18 22:35 12.73243 -81.74509 8773 ft 285 kts 306°
2026-04-18 22:36 12.74397 -81.76180 9588 ft 290 kts 307°
2026-04-18 22:36 12.75747 -81.77735 10315 ft 293 kts 320°
2026-04-18 22:36 12.77396 -81.78958 11105 ft 294 kts 332°
2026-04-18 22:36 12.79255 -81.79845 11898 ft 295 kts 338°
2026-04-18 22:37 12.81151 -81.80678 12686 ft 298 kts 337°
2026-04-18 22:37 12.83061 -81.81523 13472 ft 300 kts 336°
2026-04-18 22:37 12.84983 -81.82378 14190 ft 302 kts 336°
2026-04-18 22:37 12.86921 -81.83240 14862 ft 305 kts 337°
2026-04-18 22:38 12.88875 -81.84111 15507 ft 308 kts 337°
2026-04-18 22:38 12.90858 -81.84994 16162 ft 311 kts 338°
2026-04-18 22:38 12.92856 -81.85881 16821 ft 314 kts 338°
2026-04-18 22:38 12.94869 -81.86774 17487 ft 317 kts 338°
2026-04-18 22:39 12.96908 -81.87677 18140 ft 320 kts 339°
2026-04-18 22:39 12.98988 -81.88599 18427 ft 335 kts 338°
2026-04-18 22:39 13.01170 -81.89567 18709 ft 347 kts 338°
2026-04-18 22:39 13.03444 -81.90577 18826 ft 365 kts 338°
2026-04-18 22:40 13.05833 -81.91640 18956 ft 382 kts 338°
2026-04-18 22:40 13.08310 -81.92744 19220 ft 393 kts 338°
2026-04-18 22:40 13.10828 -81.93867 19678 ft 397 kts 338°
2026-04-18 22:40 13.13341 -81.94988 20184 ft 400 kts 338°
2026-04-18 22:41 13.15901 -81.96126 20712 ft 403 kts 338°
2026-04-18 22:41 13.18485 -81.97273 21240 ft 405 kts 338°
2026-04-18 22:41 13.21081 -81.98426 21753 ft 408 kts 338°
2026-04-18 22:41 13.23693 -81.99588 22250 ft 410 kts 338°
2026-04-18 22:42 13.26320 -82.00759 22740 ft 413 kts 338°
2026-04-18 22:42 13.28961 -82.01940 23223 ft 416 kts 337°
2026-04-18 22:42 13.31623 -82.03130 23654 ft 418 kts 337°
2026-04-18 22:42 13.34298 -82.04325 24055 ft 420 kts 338°
2026-04-18 22:43 13.36982 -82.05524 24459 ft 422 kts 338°
2026-04-18 22:43 13.39680 -82.06728 24865 ft 424 kts 338°
2026-04-18 22:43 13.42390 -82.07935 25259 ft 426 kts 338°
2026-04-18 22:43 13.45117 -82.09151 25660 ft 427 kts 338°
2026-04-18 22:44 13.47848 -82.10373 26044 ft 429 kts 338°
2026-04-18 22:44 13.50591 -82.11600 26436 ft 431 kts 338°
2026-04-18 22:44 13.53348 -82.12833 26832 ft 433 kts 338°
2026-04-18 22:44 13.56117 -82.14072 27215 ft 435 kts 338°
2026-04-18 22:45 13.58904 -82.15317 27609 ft 437 kts 338°
2026-04-18 22:45 13.61700 -82.16565 27993 ft 439 kts 338°
2026-04-18 22:45 13.64510 -82.17817 28370 ft 441 kts 339°
2026-04-18 22:45 13.67332 -82.19076 28751 ft 443 kts 339°
2026-04-18 22:46 13.70168 -82.20343 29103 ft 445 kts 339°
2026-04-18 22:46 13.73009 -82.21617 29462 ft 447 kts 339°
2026-04-18 22:46 13.75869 -82.22901 29816 ft 449 kts 338°
2026-04-18 22:46 13.78733 -82.24185 30133 ft 451 kts 339°
2026-04-18 22:47 13.81614 -82.25476 30426 ft 453 kts 338°
2026-04-18 22:47 13.84507 -82.26772 30742 ft 453 kts 339°
2026-04-18 22:47 13.87397 -82.28063 31174 ft 452 kts 339°
2026-04-18 22:47 13.90275 -82.29350 31599 ft 450 kts 338°
2026-04-18 22:48 13.93134 -82.30631 32038 ft 448 kts 338°
2026-04-18 22:48 13.95994 -82.31913 32480 ft 447 kts 338°
2026-04-18 22:48 13.98841 -82.33188 32912 ft 445 kts 338°
2026-04-18 22:48 14.01673 -82.34459 33351 ft 444 kts 338°
2026-04-18 22:49 14.04499 -82.35727 33795 ft 442 kts 338°
2026-04-18 22:49 14.07309 -82.36993 34199 ft 441 kts 338°
2026-04-18 22:49 14.10116 -82.38259 34596 ft 440 kts 338°
2026-04-18 22:49 14.12912 -82.39518 35019 ft 437 kts 338°
2026-04-18 22:50 14.15659 -82.40755 35379 ft 437 kts 338°
2026-04-18 22:50 14.18478 -82.42024 35717 ft 436 kts 338°
2026-04-18 22:50 14.21231 -82.43259 35878 ft 437 kts 339°
2026-04-18 22:50 14.24011 -82.44503 35912 ft 436 kts 339°
2026-04-18 22:51 14.29560 -82.47045 35914 ft 436 kts 338°
2026-04-18 22:51 14.35062 -82.49674 35915 ft 436 kts 337°
2026-04-18 22:52 14.40569 -82.52313 35918 ft 436 kts 337°
2026-04-18 22:52 14.46081 -82.54939 35917 ft 436 kts 337°
2026-04-18 22:53 14.51602 -82.57548 35917 ft 436 kts 338°
2026-04-18 22:53 14.57121 -82.60162 35921 ft 437 kts 337°
2026-04-18 22:54 14.62637 -82.62786 35921 ft 436 kts 337°
2026-04-18 22:54 14.68153 -82.65409 35922 ft 436 kts 337°
2026-04-18 22:55 14.73674 -82.68033 35921 ft 436 kts 337°
2026-04-18 22:55 14.79190 -82.70655 35917 ft 436 kts 337°
2026-04-18 22:56 14.84705 -82.73275 35919 ft 436 kts 337°
2026-04-18 22:56 14.89281 -82.75454 35920 ft 436 kts 337°
2026-04-18 22:57 14.95689 -82.78507 35918 ft 436 kts 338°
2026-04-18 22:57 15.01203 -82.81132 35920 ft 436 kts 337°
2026-04-18 22:58 15.05789 -82.83316 35918 ft 436 kts 338°
2026-04-18 22:58 15.11304 -82.85946 35917 ft 436 kts 337°
2026-04-18 22:59 15.16816 -82.88583 35916 ft 436 kts 337°
2026-04-18 22:59 15.22325 -82.91213 35922 ft 436 kts 337°
2026-04-18 23:00 15.27831 -82.93849 35928 ft 436 kts 337°
2026-04-18 23:00 15.33328 -82.96479 35929 ft 435 kts 338°
2026-04-18 23:01 15.38827 -82.99103 35928 ft 435 kts 337°
2026-04-18 23:01 15.44322 -83.01737 35927 ft 435 kts 337°
2026-04-18 23:02 15.49816 -83.04368 35924 ft 435 kts 338°
2026-04-18 23:02 15.55306 -83.06991 35923 ft 435 kts 337°
2026-04-18 23:03 15.60791 -83.09624 35925 ft 434 kts 337°
2026-04-18 23:03 15.66273 -83.12262 35926 ft 434 kts 337°
2026-04-18 23:04 15.71748 -83.14896 35927 ft 434 kts 337°
2026-04-18 23:04 15.77219 -83.17527 35919 ft 434 kts 337°
2026-04-18 23:05 15.82703 -83.20160 35920 ft 434 kts 337°
2026-04-18 23:05 15.88176 -83.22794 35920 ft 434 kts 337°
2026-04-18 23:06 15.93657 -83.25433 35920 ft 434 kts 337°
2026-04-18 23:06 15.99132 -83.28076 35927 ft 434 kts 337°
2026-04-18 23:07 16.04606 -83.30710 35929 ft 434 kts 338°
2026-04-18 23:07 16.10089 -83.33324 35929 ft 433 kts 338°
2026-04-18 23:08 16.15585 -83.35913 35927 ft 433 kts 338°
2026-04-18 23:08 16.21037 -83.38477 35927 ft 433 kts 338°
2026-04-18 23:09 16.26529 -83.41077 35926 ft 433 kts 338°
2026-04-18 23:09 16.32013 -83.43680 35927 ft 433 kts 338°
2026-04-18 23:10 16.37498 -83.46277 35930 ft 433 kts 338°
2026-04-18 23:10 16.42980 -83.48876 35929 ft 433 kts 338°
2026-04-18 23:11 16.48458 -83.51475 35928 ft 433 kts 338°
2026-04-18 23:11 16.53943 -83.54075 35922 ft 433 kts 338°
2026-04-18 23:12 16.59433 -83.56677 35918 ft 433 kts 338°
2026-04-18 23:12 16.64914 -83.59282 35924 ft 433 kts 338°
2026-04-18 23:13 16.70395 -83.61892 35930 ft 433 kts 338°
2026-04-18 23:13 16.75842 -83.64484 35931 ft 433 kts 338°
2026-04-18 23:14 16.81319 -83.67094 35934 ft 433 kts 338°
2026-04-18 23:14 16.86799 -83.69706 35934 ft 433 kts 338°
2026-04-18 23:15 16.92274 -83.72320 35932 ft 433 kts 338°
2026-04-18 23:15 16.97750 -83.74930 35937 ft 432 kts 338°
2026-04-18 23:16 17.03220 -83.77547 35944 ft 432 kts 337°
2026-04-18 23:16 17.08685 -83.80152 35944 ft 432 kts 338°
2026-04-18 23:17 17.14148 -83.82757 35946 ft 431 kts 337°
2026-04-18 23:17 17.19608 -83.85380 35944 ft 431 kts 337°
2026-04-18 23:18 17.25064 -83.87991 35940 ft 431 kts 338°
2026-04-18 23:18 17.30527 -83.90602 35941 ft 431 kts 338°
2026-04-18 23:19 17.35982 -83.93207 35935 ft 432 kts 337°
2026-04-18 23:19 17.41442 -83.95835 35933 ft 432 kts 337°
2026-04-18 23:20 17.46871 -83.98445 35934 ft 432 kts 337°
2026-04-18 23:20 17.52338 -84.01069 35936 ft 432 kts 337°
2026-04-18 23:21 17.57807 -84.03699 35937 ft 432 kts 337°
2026-04-18 23:21 17.63279 -84.06337 35941 ft 433 kts 337°
2026-04-18 23:22 17.68752 -84.08968 35948 ft 432 kts 337°
2026-04-18 23:23 17.76953 -84.12912 35947 ft 432 kts 337°
2026-04-18 23:23 17.82415 -84.15543 35953 ft 432 kts 336°
2026-04-18 23:24 17.87877 -84.18181 35951 ft 432 kts 336°
2026-04-18 23:24 17.93334 -84.20815 35951 ft 432 kts 337°
2026-04-18 23:25 17.98795 -84.23447 35952 ft 432 kts 336°
2026-04-18 23:25 18.04256 -84.26095 35952 ft 432 kts 336°
2026-04-18 23:26 18.09711 -84.28730 35950 ft 432 kts 336°
2026-04-18 23:26 18.15174 -84.31377 35943 ft 432 kts 336°
2026-04-18 23:27 18.20638 -84.34024 35940 ft 433 kts 336°
2026-04-18 23:27 18.26112 -84.36682 35942 ft 433 kts 336°
2026-04-18 23:28 18.31589 -84.39336 35944 ft 434 kts 336°
2026-04-18 23:28 18.37072 -84.41984 35944 ft 434 kts 336°
2026-04-18 23:29 18.42554 -84.44641 35943 ft 433 kts 336°
2026-04-18 23:29 18.48023 -84.47307 35949 ft 433 kts 335°
2026-04-18 23:30 18.53491 -84.49975 35959 ft 433 kts 335°
2026-04-18 23:30 18.58946 -84.52694 35961 ft 433 kts 335°
2026-04-18 23:31 18.64371 -84.55452 35959 ft 433 kts 335°
2026-04-18 23:31 18.69805 -84.58209 35955 ft 433 kts 335°
2026-04-18 23:32 18.75231 -84.60950 35958 ft 432 kts 335°
2026-04-18 23:32 18.80658 -84.63673 35957 ft 432 kts 335°
2026-04-18 23:33 18.86088 -84.66411 35955 ft 432 kts 334°
2026-04-18 23:33 18.91480 -84.69141 35950 ft 433 kts 334°
2026-04-18 23:34 18.96917 -84.71882 35945 ft 433 kts 334°
2026-04-18 23:34 19.02347 -84.74627 35949 ft 433 kts 334°
2026-04-18 23:35 19.07785 -84.77381 35964 ft 433 kts 334°
2026-04-18 23:35 19.13225 -84.80144 35969 ft 434 kts 334°
2026-04-18 23:36 19.18664 -84.82902 35966 ft 433 kts 334°
2026-04-18 23:36 19.24093 -84.85653 35965 ft 433 kts 334°
2026-04-18 23:37 19.29525 -84.88405 35966 ft 433 kts 334°
2026-04-18 23:37 19.34956 -84.91171 35970 ft 433 kts 334°
2026-04-18 23:38 19.40383 -84.93927 35970 ft 433 kts 334°
2026-04-18 23:38 19.45810 -84.96687 35965 ft 432 kts 334°
2026-04-18 23:39 19.51230 -84.99449 35977 ft 432 kts 334°
2026-04-18 23:39 19.56649 -85.02220 35977 ft 432 kts 334°
2026-04-18 23:40 19.62069 -85.04986 35967 ft 432 kts 334°
2026-04-18 23:40 19.67483 -85.07740 35962 ft 432 kts 334°
2026-04-18 23:41 19.72905 -85.10508 35966 ft 432 kts 333°
2026-04-18 23:41 19.78318 -85.13282 35974 ft 432 kts 333°
2026-04-18 23:42 19.83732 -85.16052 35969 ft 432 kts 333°
2026-04-18 23:42 19.89149 -85.18815 35972 ft 432 kts 333°
2026-04-18 23:43 19.94556 -85.21583 35972 ft 431 kts 333°
2026-04-18 23:43 19.99047 -85.23892 35969 ft 431 kts 333°
2026-04-18 23:44 20.04460 -85.26667 35974 ft 432 kts 333°
2026-04-18 23:44 20.09863 -85.29448 35981 ft 432 kts 333°
2026-04-18 23:45 20.15276 -85.32227 35979 ft 432 kts 333°
2026-04-18 23:45 20.20704 -85.34962 35981 ft 432 kts 335°
2026-04-18 23:46 20.26269 -85.37381 35974 ft 432 kts 338°
2026-04-18 23:46 20.31892 -85.39666 35980 ft 432 kts 338°
2026-04-18 23:47 20.37486 -85.41992 35979 ft 432 kts 337°
2026-04-18 23:47 20.43060 -85.44373 35981 ft 432 kts 336°
2026-04-18 23:48 20.48632 -85.46772 35979 ft 431 kts 336°
2026-04-18 23:48 20.54189 -85.49155 35977 ft 431 kts 336°
2026-04-18 23:49 20.59760 -85.51534 35983 ft 431 kts 336°
2026-04-18 23:49 20.65325 -85.53913 35982 ft 431 kts 336°
2026-04-18 23:50 20.70886 -85.56297 35981 ft 431 kts 336°
2026-04-18 23:50 20.76447 -85.58688 35991 ft 431 kts 336°
2026-04-18 23:51 20.82005 -85.61077 35993 ft 431 kts 336°
2026-04-18 23:51 20.87571 -85.63465 35991 ft 430 kts 336°
2026-04-18 23:52 20.93127 -85.65847 35992 ft 430 kts 336°
2026-04-18 23:52 20.98680 -85.68237 35998 ft 430 kts 336°
2026-04-18 23:53 21.04239 -85.70637 35997 ft 431 kts 336°
2026-04-18 23:53 21.09800 -85.73030 36005 ft 431 kts 336°
2026-04-18 23:54 21.15354 -85.75422 36008 ft 430 kts 336°
2026-04-18 23:54 21.20899 -85.77821 36006 ft 430 kts 336°
2026-04-18 23:55 21.26405 -85.80205 35997 ft 429 kts 336°
2026-04-18 23:55 21.31984 -85.82613 36000 ft 429 kts 336°
2026-04-18 23:56 21.37522 -85.84997 35997 ft 429 kts 336°
2026-04-18 23:56 21.43021 -85.87366 35994 ft 429 kts 336°
2026-04-18 23:57 21.48549 -85.89769 35996 ft 428 kts 336°
2026-04-18 23:57 21.54074 -85.92175 35996 ft 428 kts 336°
2026-04-18 23:58 21.59591 -85.94582 35995 ft 428 kts 336°
2026-04-18 23:58 21.65124 -85.96987 35995 ft 429 kts 336°
2026-04-18 23:59 21.70654 -85.99388 35995 ft 428 kts 336°
2026-04-18 23:59 21.76180 -86.01786 36001 ft 428 kts 335°
2026-04-19 00:00 21.81707 -86.04184 36002 ft 428 kts 335°
2026-04-19 00:00 21.87235 -86.06584 36002 ft 428 kts 335°
2026-04-19 00:01 21.92756 -86.08995 36006 ft 428 kts 335°
2026-04-19 00:01 21.98272 -86.11407 36006 ft 428 kts 335°
2026-04-19 00:02 22.03783 -86.13822 36005 ft 428 kts 335°
2026-04-19 00:02 22.09301 -86.16242 36009 ft 428 kts 335°
2026-04-19 00:03 22.14817 -86.18657 36000 ft 428 kts 335°
2026-04-19 00:03 22.20337 -86.21076 35995 ft 428 kts 335°
2026-04-19 00:04 22.25863 -86.23500 35996 ft 429 kts 335°
2026-04-19 00:04 22.31399 -86.25926 36000 ft 429 kts 335°
2026-04-19 00:05 22.36936 -86.28352 35997 ft 429 kts 335°
2026-04-19 00:05 22.42423 -86.30769 36007 ft 429 kts 335°
2026-04-19 00:06 22.47954 -86.33209 36005 ft 429 kts 335°
2026-04-19 00:06 22.53524 -86.35661 36003 ft 429 kts 335°
2026-04-19 00:07 22.59018 -86.38087 36007 ft 429 kts 335°
2026-04-19 00:07 22.64555 -86.40518 36008 ft 430 kts 335°
2026-04-19 00:08 22.70092 -86.42953 36011 ft 430 kts 335°
2026-04-19 00:08 22.75622 -86.45401 36020 ft 429 kts 335°
2026-04-19 00:09 22.81148 -86.47850 36019 ft 429 kts 335°
2026-04-19 00:09 22.86681 -86.50305 36018 ft 429 kts 335°
2026-04-19 00:10 22.92205 -86.52757 36018 ft 429 kts 335°
2026-04-19 00:10 22.97744 -86.55215 36021 ft 429 kts 335°
2026-04-19 00:11 23.03274 -86.57672 36018 ft 429 kts 334°
2026-04-19 00:11 23.08800 -86.60125 36025 ft 429 kts 334°
2026-04-19 00:12 23.14332 -86.62580 36025 ft 429 kts 334°
2026-04-19 00:12 23.19858 -86.65049 36027 ft 429 kts 334°
2026-04-19 00:13 23.25384 -86.67517 36031 ft 429 kts 334°
2026-04-19 00:13 23.30907 -86.69971 36028 ft 429 kts 334°
2026-04-19 00:14 23.36424 -86.72427 36024 ft 428 kts 334°
2026-04-19 00:14 23.41934 -86.74895 36034 ft 428 kts 334°
2026-04-19 00:15 23.47441 -86.77351 36032 ft 428 kts 334°
2026-04-19 00:15 23.52951 -86.79813 36028 ft 428 kts 334°
2026-04-19 00:16 23.58416 -86.82268 36027 ft 428 kts 334°
2026-04-19 00:16 23.63921 -86.84737 36026 ft 427 kts 334°
2026-04-19 00:17 23.69414 -86.87202 36025 ft 427 kts 334°
2026-04-19 00:17 23.74917 -86.89675 36037 ft 427 kts 334°
2026-04-19 00:18 23.80413 -86.92138 36035 ft 427 kts 334°
2026-04-19 00:18 23.85898 -86.94610 36036 ft 426 kts 334°
2026-04-19 00:19 23.91381 -86.97080 36034 ft 426 kts 334°
2026-04-19 00:19 23.96870 -86.99544 36032 ft 426 kts 334°
2026-04-19 00:20 24.02351 -87.02018 36030 ft 426 kts 334°
2026-04-19 00:20 24.07832 -87.04500 36044 ft 426 kts 333°
2026-04-19 00:21 24.13306 -87.06971 36042 ft 425 kts 333°
2026-04-19 00:21 24.18778 -87.09445 36040 ft 425 kts 333°
2026-04-19 00:22 24.24240 -87.11926 36036 ft 425 kts 333°
2026-04-19 00:22 24.29711 -87.14386 36033 ft 425 kts 335°
2026-04-19 00:23 24.35305 -87.16551 36042 ft 427 kts 338°
2026-04-19 00:23 24.40964 -87.18545 36049 ft 427 kts 338°
2026-04-19 00:24 24.46615 -87.20572 36039 ft 427 kts 337°
2026-04-19 00:24 24.52242 -87.22661 36047 ft 427 kts 336°
2026-04-19 00:25 24.57867 -87.24769 36043 ft 427 kts 336°
2026-04-19 00:25 24.63494 -87.26866 36044 ft 427 kts 336°
2026-04-19 00:26 24.69121 -87.28958 36034 ft 427 kts 337°
2026-04-19 00:26 24.74722 -87.31036 36042 ft 427 kts 337°
2026-04-19 00:27 24.80353 -87.33136 36043 ft 427 kts 336°
2026-04-19 00:27 24.85977 -87.35239 36040 ft 427 kts 336°
2026-04-19 00:28 24.91600 -87.37346 36043 ft 427 kts 336°
2026-04-19 00:28 24.97225 -87.39446 36050 ft 426 kts 336°
2026-04-19 00:29 25.02844 -87.41539 36057 ft 427 kts 336°
2026-04-19 00:29 25.08468 -87.43659 36043 ft 427 kts 336°
2026-04-19 00:30 25.13132 -87.45446 36046 ft 427 kts 336°
2026-04-19 00:30 25.18745 -87.47603 36047 ft 427 kts 336°
2026-04-19 00:31 25.24358 -87.49759 36047 ft 427 kts 336°
2026-04-19 00:31 25.29970 -87.51913 36049 ft 427 kts 336°
2026-04-19 00:32 25.35581 -87.54068 36056 ft 427 kts 335°
2026-04-19 00:32 25.41195 -87.56221 36055 ft 427 kts 335°
2026-04-19 00:33 25.46807 -87.58381 36055 ft 427 kts 335°
2026-04-19 00:33 25.52427 -87.60545 36058 ft 427 kts 335°
2026-04-19 00:34 25.60848 -87.63797 36058 ft 427 kts 335°
2026-04-19 00:34 25.66457 -87.65961 36065 ft 427 kts 335°
2026-04-19 00:35 25.72073 -87.68133 36066 ft 427 kts 335°
2026-04-19 00:35 25.77684 -87.70297 36066 ft 427 kts 335°
2026-04-19 00:36 25.83297 -87.72470 36066 ft 427 kts 335°
2026-04-19 00:36 25.88912 -87.74656 36064 ft 428 kts 335°
2026-04-19 00:37 25.94493 -87.76818 36083 ft 428 kts 334°
2026-04-19 00:37 26.00120 -87.78992 36074 ft 428 kts 334°
2026-04-19 00:38 26.05732 -87.81173 36068 ft 428 kts 334°
2026-04-19 00:38 26.11356 -87.83365 36066 ft 428 kts 334°
2026-04-19 00:39 26.16984 -87.85557 36068 ft 428 kts 334°
2026-04-19 00:39 26.22614 -87.87745 36066 ft 428 kts 334°
2026-04-19 00:40 26.28237 -87.89939 36082 ft 428 kts 334°
2026-04-19 00:40 26.33852 -87.92136 36076 ft 428 kts 334°
2026-04-19 00:41 26.39469 -87.94343 36074 ft 428 kts 334°
2026-04-19 00:41 26.45078 -87.96543 36070 ft 428 kts 334°
2026-04-19 00:42 26.50693 -87.98738 36070 ft 427 kts 334°
2026-04-19 00:42 26.56305 -88.00938 36084 ft 427 kts 334°
2026-04-19 00:43 26.61920 -88.03135 36079 ft 427 kts 334°
2026-04-19 00:43 26.67491 -88.05329 36077 ft 427 kts 334°
2026-04-19 00:44 26.73134 -88.07560 36077 ft 427 kts 334°
2026-04-19 00:44 26.78742 -88.09770 36076 ft 427 kts 334°
2026-04-19 00:45 26.84322 -88.11970 36071 ft 428 kts 334°
2026-04-19 00:45 26.89941 -88.14181 36078 ft 428 kts 333°
2026-04-19 00:46 26.95564 -88.16401 36073 ft 428 kts 333°
2026-04-19 00:46 27.01186 -88.18634 36071 ft 429 kts 333°
2026-04-19 00:47 27.06808 -88.20863 36072 ft 429 kts 333°
2026-04-19 00:47 27.12438 -88.23090 36072 ft 429 kts 333°
2026-04-19 00:48 27.18058 -88.25318 36091 ft 429 kts 333°
2026-04-19 00:48 27.23687 -88.27555 36087 ft 429 kts 333°
2026-04-19 00:49 27.29307 -88.29790 36080 ft 429 kts 333°
2026-04-19 00:49 27.34942 -88.32005 36072 ft 429 kts 333°
2026-04-19 00:50 27.40579 -88.34205 36071 ft 429 kts 333°
2026-04-19 00:50 27.46216 -88.36410 36072 ft 429 kts 333°
2026-04-19 00:51 27.51858 -88.38620 36093 ft 429 kts 333°
2026-04-19 00:51 27.57491 -88.40836 36086 ft 429 kts 333°
2026-04-19 00:52 27.63121 -88.43052 36080 ft 429 kts 332°
2026-04-19 00:52 27.65954 -88.44169 36229 ft 431 kts 332°
2026-04-19 00:52 27.68783 -88.45284 36609 ft 430 kts 332°
2026-04-19 00:53 27.71606 -88.46393 37018 ft 429 kts 332°
2026-04-19 00:53 27.74419 -88.47497 37418 ft 427 kts 332°
2026-04-19 00:53 27.77219 -88.48595 37781 ft 426 kts 332°
2026-04-19 00:53 27.80018 -88.49699 38050 ft 425 kts 332°
2026-04-19 00:54 27.85577 -88.51906 38081 ft 423 kts 332°
2026-04-19 00:54 27.91136 -88.54107 38081 ft 423 kts 332°
2026-04-19 00:55 27.96684 -88.56307 38081 ft 423 kts 332°
2026-04-19 00:55 28.02238 -88.58508 38081 ft 423 kts 332°
2026-04-19 00:56 28.07785 -88.60712 38109 ft 423 kts 332°
2026-04-19 00:56 28.13347 -88.62914 38093 ft 423 kts 332°
2026-04-19 00:57 28.18897 -88.65118 38091 ft 423 kts 332°
2026-04-19 00:57 28.24191 -88.67779 38084 ft 408 kts 318°
2026-04-19 00:58 28.28754 -88.71456 38079 ft 405 kts 316°
2026-04-19 00:58 28.33163 -88.75019 38077 ft 405 kts 316°
2026-04-19 00:59 28.37759 -88.78733 38096 ft 405 kts 316°
2026-04-19 00:59 28.42341 -88.82458 38091 ft 405 kts 316°
2026-04-19 01:00 28.46925 -88.86183 38081 ft 405 kts 316°
2026-04-19 01:00 28.51513 -88.89917 38072 ft 406 kts 316°
2026-04-19 01:01 28.56116 -88.93663 38069 ft 407 kts 316°
2026-04-19 01:01 28.60719 -88.97411 38069 ft 407 kts 316°
2026-04-19 01:02 28.65332 -89.01170 38070 ft 408 kts 316°
2026-04-19 01:02 28.69934 -89.04931 38099 ft 407 kts 315°
2026-04-19 01:03 28.74533 -89.08692 38099 ft 406 kts 315°
2026-04-19 01:03 28.79122 -89.12446 38096 ft 406 kts 315°
2026-04-19 01:04 28.83705 -89.16204 38090 ft 406 kts 315°
2026-04-19 01:04 28.88293 -89.19964 38087 ft 406 kts 315°
2026-04-19 01:05 28.92878 -89.23724 38089 ft 406 kts 315°
2026-04-19 01:05 28.97458 -89.27485 38112 ft 406 kts 315°
2026-04-19 01:06 29.02034 -89.31251 38104 ft 405 kts 314°
2026-04-19 01:06 29.06591 -89.35012 38099 ft 404 kts 314°
2026-04-19 01:07 29.11150 -89.38774 38093 ft 404 kts 315°
2026-04-19 01:07 29.15695 -89.42520 38087 ft 404 kts 315°
2026-04-19 01:08 29.20248 -89.46283 38084 ft 403 kts 314°
2026-04-19 01:08 29.24792 -89.50056 38097 ft 403 kts 314°
2026-04-19 01:09 29.29332 -89.53822 38107 ft 403 kts 314°
2026-04-19 01:09 29.33875 -89.57583 38098 ft 402 kts 314°
2026-04-19 01:10 29.38405 -89.61339 38089 ft 402 kts 314°
2026-04-19 01:10 29.42897 -89.65079 38085 ft 402 kts 314°
2026-04-19 01:11 29.47416 -89.68848 38084 ft 402 kts 314°
2026-04-19 01:11 29.51966 -89.72631 38074 ft 402 kts 314°
2026-04-19 01:12 29.56463 -89.76378 38097 ft 401 kts 314°
2026-04-19 01:12 29.60981 -89.80149 38086 ft 401 kts 314°
2026-04-19 01:13 29.65494 -89.83924 38072 ft 401 kts 314°
2026-04-19 01:13 29.70009 -89.87699 38078 ft 401 kts 314°
2026-04-19 01:14 29.74519 -89.91480 38078 ft 401 kts 313°
2026-04-19 01:14 29.79027 -89.95270 38068 ft 401 kts 313°
2026-04-19 01:15 29.83520 -89.99072 38106 ft 397 kts 309°
2026-04-19 01:15 29.86540 -90.02891 38078 ft 376 kts 295°
2026-04-19 01:16 29.89405 -90.07874 38068 ft 376 kts 295°
2026-04-19 01:16 29.92334 -90.12914 38064 ft 376 kts 295°
2026-04-19 01:17 29.95238 -90.17928 38057 ft 376 kts 295°
2026-04-19 01:17 29.98137 -90.22948 38052 ft 376 kts 295°
2026-04-19 01:18 30.01041 -90.27981 38052 ft 376 kts 295°
2026-04-19 01:18 30.03944 -90.33005 38057 ft 377 kts 295°
2026-04-19 01:19 30.06844 -90.38046 38056 ft 377 kts 295°
2026-04-19 01:19 30.09744 -90.43098 38062 ft 378 kts 295°
2026-04-19 01:20 30.12646 -90.48151 38084 ft 378 kts 294°
2026-04-19 01:20 30.15561 -90.53231 38059 ft 380 kts 294°
2026-04-19 01:21 30.18463 -90.58304 38058 ft 381 kts 294°
2026-04-19 01:21 30.21386 -90.63410 38059 ft 382 kts 294°
2026-04-19 01:22 30.24318 -90.68535 38049 ft 382 kts 294°
2026-04-19 01:22 30.27246 -90.73665 38055 ft 382 kts 294°
2026-04-19 01:23 30.30174 -90.78802 38058 ft 383 kts 294°
2026-04-19 01:23 30.33104 -90.83954 38052 ft 383 kts 294°
2026-04-19 01:24 30.36038 -90.89121 38050 ft 384 kts 294°
2026-04-19 01:24 30.38977 -90.94290 38052 ft 385 kts 294°
2026-04-19 01:25 30.41794 -90.99541 38059 ft 380 kts 288°
2026-04-19 01:25 30.43998 -91.05082 38047 ft 379 kts 287°
2026-04-19 01:26 30.46167 -91.10653 38047 ft 380 kts 287°
2026-04-19 01:26 30.48328 -91.16250 38070 ft 381 kts 287°
2026-04-19 01:27 30.50492 -91.21855 38057 ft 382 kts 287°
2026-04-19 01:27 30.52667 -91.27477 38052 ft 382 kts 286°
2026-04-19 01:28 30.54190 -91.33284 38052 ft 375 kts 279°
2026-04-19 01:28 30.55542 -91.39131 38050 ft 375 kts 279°
2026-04-19 01:29 30.56898 -91.44982 38047 ft 375 kts 279°
2026-04-19 01:29 30.58255 -91.50829 38046 ft 375 kts 279°
2026-04-19 01:30 30.59615 -91.56681 38051 ft 376 kts 279°
2026-04-19 01:30 30.60979 -91.62541 38047 ft 376 kts 279°
2026-04-19 01:31 30.62347 -91.68404 38046 ft 376 kts 279°
2026-04-19 01:31 30.63717 -91.74270 38045 ft 377 kts 279°
2026-04-19 01:32 30.65091 -91.80137 38045 ft 377 kts 279°
2026-04-19 01:32 30.66470 -91.86009 38048 ft 377 kts 279°
2026-04-19 01:33 30.67854 -91.91883 38074 ft 377 kts 279°
2026-04-19 01:33 30.69246 -91.97758 38076 ft 378 kts 279°
2026-04-19 01:34 30.70623 -92.03652 38078 ft 376 kts 276°
2026-04-19 01:34 30.71538 -92.09613 38079 ft 375 kts 275°
2026-04-19 01:35 30.72408 -92.15590 38083 ft 375 kts 275°
2026-04-19 01:35 30.73279 -92.21565 38082 ft 375 kts 275°
2026-04-19 01:36 30.74153 -92.27538 38080 ft 375 kts 275°
2026-04-19 01:36 30.75056 -92.33521 38088 ft 376 kts 275°
2026-04-19 01:37 30.75983 -92.39493 38098 ft 376 kts 275°
2026-04-19 01:37 30.77043 -92.45456 38103 ft 383 kts 284°
2026-04-19 01:38 30.79475 -92.51017 38108 ft 376 kts 283°
2026-04-19 01:38 30.81270 -92.56665 38115 ft 370 kts 283°
2026-04-19 01:39 30.82835 -92.62328 38118 ft 366 kts 280°
2026-04-19 01:39 30.84296 -92.68002 38115 ft 366 kts 280°
2026-04-19 01:40 30.85419 -92.73692 38116 ft 357 kts 273°
2026-04-19 01:40 30.86156 -92.79403 38114 ft 357 kts 272°
2026-04-19 01:41 30.86819 -92.85093 38099 ft 357 kts 272°
2026-04-19 01:41 30.87493 -92.90847 38107 ft 356 kts 272°
2026-04-19 01:42 30.88165 -92.96565 38111 ft 356 kts 272°
2026-04-19 01:42 30.87961 -93.02166 38113 ft 348 kts 256°
2026-04-19 01:43 30.87635 -93.05002 38107 ft 352 kts 265°
2026-04-19 01:43 30.87682 -93.10684 38131 ft 355 kts 266°
2026-04-19 01:44 30.87784 -93.16433 38141 ft 355 kts 266°
2026-04-19 01:44 30.87889 -93.22183 38152 ft 356 kts 266°
2026-04-19 01:45 30.87999 -93.27936 38153 ft 356 kts 266°
2026-04-19 01:45 30.88111 -93.33693 38156 ft 356 kts 266°
2026-04-19 01:46 30.88226 -93.39459 38163 ft 356 kts 266°
2026-04-19 01:46 30.88346 -93.45218 38161 ft 356 kts 266°
2026-04-19 01:47 30.88470 -93.50970 38155 ft 355 kts 266°
2026-04-19 01:47 30.89512 -93.56633 38145 ft 379 kts 292°
2026-04-19 01:47 30.91156 -93.59104 38177 ft 391 kts 300°
2026-04-19 01:48 30.92959 -93.61484 38173 ft 392 kts 300°
2026-04-19 01:48 30.96506 -93.66291 38158 ft 391 kts 299°
2026-04-19 01:49 31.00009 -93.71131 38157 ft 391 kts 298°
2026-04-19 01:49 31.03522 -93.75969 38156 ft 391 kts 299°
2026-04-19 01:50 31.07039 -93.80817 38164 ft 391 kts 299°
2026-04-19 01:50 31.10546 -93.85665 38151 ft 392 kts 299°
2026-04-19 01:51 31.14073 -93.90527 38154 ft 393 kts 299°
2026-04-19 01:51 31.17588 -93.95374 38155 ft 394 kts 299°
2026-04-19 01:52 31.21120 -94.00263 38187 ft 394 kts 299°
2026-04-19 01:52 31.24680 -94.05199 37977 ft 397 kts 299°
2026-04-19 01:52 31.26461 -94.07664 37330 ft 398 kts 300°
2026-04-19 01:53 31.28248 -94.10140 36734 ft 399 kts 300°
2026-04-19 01:53 31.30042 -94.12636 36612 ft 403 kts 300°
2026-04-19 01:53 31.31848 -94.15157 36489 ft 406 kts 300°
2026-04-19 01:53 31.33663 -94.17687 36362 ft 407 kts 300°
2026-04-19 01:54 31.35489 -94.20226 36237 ft 409 kts 301°
2026-04-19 01:54 31.37331 -94.22784 36112 ft 411 kts 301°
2026-04-19 01:54 31.39178 -94.25348 35990 ft 413 kts 301°
2026-04-19 01:54 31.41032 -94.27924 35880 ft 414 kts 301°
2026-04-19 01:55 31.42886 -94.30506 35759 ft 415 kts 301°
2026-04-19 01:55 31.44743 -94.33096 35635 ft 416 kts 301°
2026-04-19 01:55 31.46618 -94.35680 35559 ft 421 kts 304°
2026-04-19 01:55 31.48906 -94.37922 35437 ft 436 kts 315°
2026-04-19 01:56 31.51409 -94.39965 35315 ft 440 kts 316°
2026-04-19 01:56 31.53934 -94.42011 35089 ft 441 kts 316°
2026-04-19 01:56 31.56457 -94.44067 34857 ft 442 kts 316°
2026-04-19 01:56 31.58964 -94.46164 34622 ft 442 kts 312°
2026-04-19 01:57 31.61055 -94.48694 34377 ft 423 kts 299°
2026-04-19 01:57 31.62794 -94.51435 34086 ft 417 kts 298°
2026-04-19 01:57 31.64515 -94.54169 33770 ft 414 kts 298°
2026-04-19 01:57 31.66217 -94.56881 33478 ft 412 kts 298°
2026-04-19 01:58 31.67889 -94.59552 33182 ft 411 kts 298°
2026-04-19 01:58 31.69574 -94.62255 32851 ft 409 kts 298°
2026-04-19 01:58 31.71252 -94.64942 32521 ft 407 kts 298°
2026-04-19 01:58 31.72919 -94.67607 32237 ft 402 kts 298°
2026-04-19 01:59 31.74531 -94.70262 31909 ft 395 kts 294°
2026-04-19 01:59 31.75732 -94.73108 31573 ft 385 kts 288°
2026-04-19 01:59 31.76468 -94.75005 31353 ft 389 kts 288°
2026-04-19 01:59 31.77997 -94.79013 30881 ft 409 kts 288°
2026-04-19 02:00 31.78769 -94.81043 30655 ft 411 kts 288°
2026-04-19 02:00 31.79937 -94.84106 30406 ft 411 kts 288°
2026-04-19 02:00 31.81112 -94.87173 30157 ft 410 kts 289°
2026-04-19 02:00 31.82286 -94.90225 29881 ft 409 kts 289°
2026-04-19 02:01 31.83456 -94.93268 29610 ft 407 kts 289°
2026-04-19 02:01 31.84616 -94.96290 29341 ft 405 kts 288°
2026-04-19 02:01 31.85767 -94.99298 29075 ft 402 kts 288°
2026-04-19 02:01 31.86910 -95.02291 28810 ft 400 kts 288°
2026-04-19 02:02 31.88045 -95.05274 28549 ft 398 kts 288°
2026-04-19 02:02 31.89171 -95.08242 28284 ft 396 kts 288°
2026-04-19 02:02 31.90291 -95.11194 28021 ft 395 kts 288°
2026-04-19 02:02 31.91407 -95.14139 27785 ft 393 kts 288°
2026-04-19 02:03 31.92519 -95.17075 27528 ft 391 kts 288°
2026-04-19 02:03 31.93626 -95.19991 27271 ft 390 kts 288°
2026-04-19 02:03 31.94729 -95.22896 27026 ft 388 kts 288°
2026-04-19 02:03 31.95827 -95.25794 26777 ft 386 kts 288°
2026-04-19 02:04 31.96917 -95.28677 26571 ft 385 kts 288°
2026-04-19 02:04 31.98002 -95.31546 26328 ft 383 kts 288°
2026-04-19 02:04 31.99086 -95.34412 26088 ft 382 kts 288°
2026-04-19 02:04 32.00161 -95.37263 25850 ft 380 kts 288°
2026-04-19 02:05 32.01231 -95.40106 25610 ft 379 kts 288°
2026-04-19 02:05 32.02296 -95.42933 25375 ft 377 kts 288°
2026-04-19 02:05 32.03361 -95.45753 25141 ft 376 kts 288°
2026-04-19 02:05 32.04419 -95.48564 24911 ft 374 kts 288°
2026-04-19 02:06 32.05464 -95.51337 24483 ft 368 kts 288°
2026-04-19 02:06 32.06496 -95.54084 23960 ft 364 kts 288°
2026-04-19 02:06 32.07520 -95.56807 23404 ft 361 kts 288°
2026-04-19 02:06 32.08533 -95.59503 22918 ft 357 kts 288°
2026-04-19 02:07 32.09530 -95.62161 22473 ft 353 kts 288°
2026-04-19 02:07 32.10516 -95.64796 22041 ft 349 kts 288°
2026-04-19 02:07 32.11489 -95.67399 21627 ft 344 kts 288°
2026-04-19 02:07 32.12449 -95.69969 21214 ft 340 kts 288°
2026-04-19 02:08 32.13397 -95.72506 20795 ft 336 kts 288°
2026-04-19 02:08 32.14332 -95.75019 20372 ft 332 kts 287°
2026-04-19 02:08 32.15026 -95.77597 20039 ft 334 kts 281°
2026-04-19 02:08 32.15635 -95.80287 19748 ft 341 kts 281°
2026-04-19 02:09 32.16261 -95.82986 19436 ft 342 kts 281°
2026-04-19 02:09 32.16893 -95.85683 19128 ft 341 kts 282°
2026-04-19 02:09 32.17526 -95.88377 18819 ft 340 kts 282°
2026-04-19 02:09 32.18155 -95.91062 18497 ft 338 kts 282°
2026-04-19 02:10 32.18780 -95.93740 17926 ft 338 kts 282°
2026-04-19 02:10 32.19399 -95.96404 17623 ft 335 kts 282°
2026-04-19 02:10 32.20010 -95.99051 17314 ft 334 kts 282°
2026-04-19 02:10 32.20620 -96.01694 17034 ft 332 kts 282°
2026-04-19 02:11 32.21218 -96.04284 16716 ft 330 kts 283°
2026-04-19 02:11 32.21819 -96.06890 16423 ft 328 kts 283°
2026-04-19 02:11 32.22424 -96.09523 16131 ft 327 kts 283°
2026-04-19 02:11 32.23010 -96.12072 15841 ft 325 kts 283°
2026-04-19 02:12 32.23602 -96.14644 15547 ft 324 kts 283°
2026-04-19 02:12 32.24193 -96.17207 15257 ft 323 kts 283°
2026-04-19 02:12 32.24780 -96.19759 14968 ft 321 kts 284°
2026-04-19 02:12 32.25362 -96.22304 14678 ft 320 kts 284°
2026-04-19 02:13 32.25940 -96.24839 14395 ft 319 kts 284°
2026-04-19 02:13 32.26518 -96.27369 14104 ft 317 kts 284°
2026-04-19 02:13 32.27081 -96.29833 13953 ft 304 kts 284°
2026-04-19 02:13 32.27805 -96.32142 13689 ft 298 kts 296°
2026-04-19 02:14 32.28969 -96.34165 13429 ft 299 kts 308°
2026-04-19 02:14 32.30382 -96.35946 13189 ft 293 kts 310°
2026-04-19 02:14 32.31766 -96.37687 12923 ft 289 kts 311°
2026-04-19 02:14 32.33268 -96.39257 12670 ft 289 kts 316°
2026-04-19 02:15 32.34799 -96.40796 12423 ft 288 kts 317°
2026-04-19 02:15 32.36321 -96.42322 12178 ft 284 kts 317°
2026-04-19 02:15 32.37804 -96.43830 11928 ft 278 kts 314°
2026-04-19 02:15 32.39006 -96.45589 11684 ft 273 kts 300°
2026-04-19 02:16 32.39930 -96.47557 11461 ft 274 kts 299°
2026-04-19 02:16 32.40850 -96.49526 11150 ft 274 kts 299°
2026-04-19 02:16 32.41774 -96.51496 10817 ft 274 kts 300°
2026-04-19 02:16 32.42700 -96.53464 10475 ft 274 kts 300°
2026-04-19 02:17 32.43628 -96.55436 10128 ft 274 kts 301°
2026-04-19 02:17 32.44553 -96.57402 9800 ft 271 kts 301°
2026-04-19 02:17 32.45456 -96.59328 9539 ft 264 kts 301°
2026-04-19 02:17 32.46343 -96.61224 9156 ft 265 kts 301°
2026-04-19 02:18 32.47255 -96.63136 8783 ft 268 kts 302°
2026-04-19 02:18 32.48176 -96.65049 8596 ft 268 kts 302°
2026-04-19 02:18 32.49098 -96.66968 8446 ft 269 kts 302°
2026-04-19 02:18 32.50021 -96.68892 8297 ft 269 kts 302°
2026-04-19 02:19 32.50739 -96.70937 8143 ft 270 kts 285°
2026-04-19 02:19 32.50768 -96.73130 7986 ft 265 kts 267°
2026-04-19 02:19 32.50555 -96.75277 7667 ft 261 kts 269°
2026-04-19 02:20 32.50296 -96.79540 6516 ft 263 kts 268°
2026-04-19 02:20 32.50073 -96.81721 6107 ft 267 kts 269°
2026-04-19 02:20 32.49889 -96.83824 6018 ft 246 kts 269°
2026-04-19 02:20 32.49712 -96.85755 6024 ft 230 kts 269°
2026-04-19 02:21 32.49538 -96.87627 6030 ft 229 kts 269°
2026-04-19 02:21 32.49364 -96.89503 6029 ft 228 kts 269°
2026-04-19 02:21 32.49206 -96.91368 6026 ft 226 kts 274°
2026-04-19 02:21 32.49482 -96.93137 6028 ft 214 kts 301°
2026-04-19 02:22 32.50307 -96.94465 6024 ft 189 kts 326°
2026-04-19 02:22 32.51322 -96.95398 6031 ft 184 kts 328°
2026-04-19 02:22 32.52332 -96.96326 6047 ft 184 kts 328°
2026-04-19 02:22 32.53340 -96.97257 6045 ft 183 kts 328°
2026-04-19 02:23 32.54347 -96.98185 6051 ft 183 kts 328°
2026-04-19 02:23 32.55352 -96.99111 6045 ft 183 kts 328°
2026-04-19 02:23 32.56358 -97.00038 6026 ft 183 kts 328°
2026-04-19 02:23 32.57364 -97.00966 6029 ft 184 kts 328°
2026-04-19 02:24 32.58379 -97.01889 6025 ft 183 kts 331°
2026-04-19 02:24 32.59512 -97.02507 6021 ft 177 kts 352°
2026-04-19 02:24 32.60731 -97.02680 5935 ft 176 kts 360°
2026-04-19 02:24 32.61951 -97.02728 5801 ft 174 kts
2026-04-19 02:25 32.63171 -97.02740 5518 ft 179 kts
2026-04-19 02:25 32.64424 -97.02739 5254 ft 180 kts
2026-04-19 02:25 32.65668 -97.02735 4972 ft 178 kts
2026-04-19 02:25 32.66899 -97.02729 4715 ft 175 kts
2026-04-19 02:26 32.68108 -97.02723 4485 ft 172 kts
2026-04-19 02:26 32.69297 -97.02717 4248 ft 169 kts
2026-04-19 02:26 32.70473 -97.02710 4023 ft 169 kts
2026-04-19 02:26 32.71652 -97.02704 3795 ft 169 kts
2026-04-19 02:27 32.72824 -97.02698 3567 ft 166 kts
2026-04-19 02:27 32.73957 -97.02692 3340 ft 158 kts
2026-04-19 02:27 32.74999 -97.02688 3145 ft 147 kts
2026-04-19 02:27 32.75972 -97.02683 2956 ft 133 kts
2026-04-19 02:28 32.76871 -97.02678 2782 ft 127 kts
2026-04-19 02:28 32.77742 -97.02673 2608 ft 124 kts
2026-04-19 02:28 32.78600 -97.02668 2443 ft 123 kts
2026-04-19 02:28 32.79453 -97.02663 2277 ft 122 kts
2026-04-19 02:29 32.80302 -97.02658 2084 ft 122 kts
2026-04-19 02:29 32.81149 -97.02654 1921 ft 122 kts
2026-04-19 02:29 32.81998 -97.02649 1746 ft 122 kts
2026-04-19 02:29 32.82854 -97.02645 1584 ft 123 kts
2026-04-19 02:30 32.83702 -97.02640 1422 ft 122 kts
2026-04-19 02:30 32.84556 -97.02636 1263 ft 123 kts
2026-04-19 02:30 32.85416 -97.02631 1105 ft 124 kts
2026-04-19 02:30 32.86283 -97.02626 948 ft 124 kts
2026-04-19 02:31 32.87144 -97.02621 776 ft 124 kts
2026-04-19 02:31 32.88006 -97.02618 616 ft 123 kts
2026-04-19 02:31 32.88789 -97.02610 575 ft 93 kts 359°
2026-04-19 02:31 32.89245 -97.02611 576 ft 24 kts 360°
2026-04-19 02:32 32.89372 -97.02618 572 ft 11 kts 333°
2026-04-19 02:32 32.89392 -97.02714 568 ft 14 kts 270°
2026-04-19 02:32 32.89392 -97.02724 568 ft 0 kts 271°
2026-04-19 02:33 32.89392 -97.02728 568 ft 1 kts 271°
2026-04-19 02:33 32.89392 -97.02743 569 ft 2 kts 271°
2026-04-19 02:34 32.89392 -97.02764 569 ft 3 kts 271°
2026-04-19 02:34 32.89393 -97.02786 570 ft 3 kts 271°
2026-04-19 02:34 32.89393 -97.02810 571 ft 5 kts 271°
2026-04-19 02:34 32.89394 -97.02864 573 ft 7 kts 270°
2026-04-19 02:35 32.89394 -97.02928 575 ft 9 kts 270°
2026-04-19 02:35 32.89394 -97.03061 576 ft 21 kts 272°
2026-04-19 02:35 32.89394 -97.03208 578 ft 14 kts 270°
2026-04-19 02:35 32.89392 -97.03282 583 ft 6 kts 255°
2026-04-19 02:36 32.89343 -97.03317 584 ft 13 kts 194°
2026-04-19 02:36 32.89243 -97.03321 584 ft 16 kts 182°
2026-04-19 02:36 32.89124 -97.03319 583 ft 18 kts 178°
2026-04-19 02:36 32.89022 -97.03319 583 ft 13 kts 179°
2026-04-19 02:37 32.88947 -97.03320 583 ft 9 kts 195°
2026-04-19 02:37 32.88933 -97.03377 584 ft 7 kts 271°
2026-04-19 02:37 32.88935 -97.03433 584 ft 3 kts 279°
2026-04-19 02:37 32.88948 -97.03460 584 ft 4 kts 332°
2026-04-19 02:38 32.88955 -97.03465 584 ft 1 kts 318°
2026-04-19 02:38 32.88948 -97.03487 584 ft 2 kts 253°
2026-04-19 02:38 32.88944 -97.03514 584 ft 2 kts 276°
2026-04-19 02:38 32.88947 -97.03527 584 ft 3 kts 288°
2026-04-19 02:39 32.88949 -97.03533 584 ft 0 kts 288°